createdAt,value
2023-03-26T00:02:15.851Z,97424.53
2023-03-26T00:04:47.109Z,97430.53
2023-03-26T00:07:16.695Z,97430.69
2023-03-26T00:09:45.165Z,97432.41
2023-03-26T00:12:13.880Z,97437.19
2023-03-26T00:14:43.861Z,97443.75
2023-03-26T00:17:13.722Z,97442.16
2023-03-26T00:19:43.327Z,97434.56
2023-03-26T00:22:13.872Z,97442.09
2023-03-26T00:24:45.992Z,97438.78
2023-03-26T00:27:14.940Z,97433.94
2023-03-26T00:29:43.316Z,97439.81
2023-03-26T00:32:11.905Z,97444.03
2023-03-26T00:34:42.970Z,97444.94
2023-03-26T00:37:14.490Z,97449.16
2023-03-26T00:39:43.222Z,97447.50
2023-03-26T00:42:14.981Z,97441.47
2023-03-26T00:44:43.765Z,97443.97
2023-03-26T00:47:13.287Z,97436.88
2023-03-26T00:49:47.853Z,97442.94
2023-03-26T00:52:23.507Z,97441.13
2023-03-26T00:54:54.152Z,97437.03
2023-03-26T00:57:34.563Z,97441.19
2023-03-26T01:00:16.026Z,97432.44
2023-03-26T01:02:46.758Z,97430.06
2023-03-26T01:05:49.632Z,97429.38
2023-03-26T01:08:30.905Z,97436.22
2023-03-26T01:11:07.281Z,97431.91
2023-03-26T01:13:39.691Z,97424.25
2023-03-26T01:16:20.985Z,97426.03
2023-03-26T01:18:50.490Z,97421.91
2023-03-26T01:21:30.449Z,97429.38
2023-03-26T01:24:02.528Z,97417.75
2023-03-26T01:26:46.660Z,97429.47
2023-03-26T01:29:24.256Z,97430.41
2023-03-26T01:32:03.715Z,97425.41
2023-03-26T01:34:43.734Z,97434.69
2023-03-26T01:37:21.266Z,97430.22
2023-03-26T01:39:57.188Z,97410.16
2023-03-26T01:42:35.198Z,97416.72
2023-03-26T01:45:14.667Z,97410.97
2023-03-26T01:47:45.720Z,97410.84
2023-03-26T01:50:14.473Z,97415.03
2023-03-26T01:52:43.368Z,97403.94
2023-03-26T01:55:14.958Z,97400.53
2023-03-26T01:57:53.980Z,97381.09
2023-03-26T02:00:27.665Z,97393.78
2023-03-26T02:03:06.677Z,97387.00
2023-03-26T02:05:39.777Z,97391.28
2023-03-26T02:08:16.826Z,97387.13
2023-03-26T02:10:53.005Z,97396.47
2023-03-26T02:13:22.174Z,97381.25
2023-03-26T02:15:59.592Z,97380.34
2023-03-26T02:18:36.598Z,97376.97
2023-03-26T02:21:10.245Z,97379.66
2023-03-26T02:23:40.781Z,97376.34
2023-03-26T02:26:12.438Z,97372.13
2023-03-26T02:28:41.050Z,97372.19
2023-03-26T02:31:11.387Z,97371.16
2023-03-26T02:33:40.089Z,97371.16
2023-03-26T02:36:11.067Z,97367.06
2023-03-26T02:38:40.068Z,97364.50
2023-03-26T02:41:08.836Z,97356.72
2023-03-26T02:43:38.949Z,97351.56
2023-03-26T02:46:07.782Z,97353.25
2023-03-26T02:48:36.519Z,97362.56
2023-03-26T02:51:06.872Z,97356.00
2023-03-26T02:53:37.705Z,97354.44
2023-03-26T02:56:07.249Z,97352.06
2023-03-26T02:58:36.469Z,97353.13
2023-03-26T03:01:06.745Z,97338.94
2023-03-26T03:03:36.605Z,97333.16
2023-03-26T03:06:05.333Z,97334.94
2023-03-26T03:08:34.159Z,97337.41
2023-03-26T03:11:04.251Z,97342.13
2023-03-26T03:13:32.753Z,97331.28
2023-03-26T03:16:01.594Z,97328.78
2023-03-26T03:18:31.955Z,97319.66
2023-03-26T03:21:01.134Z,97317.44
2023-03-26T03:23:29.687Z,97327.72
2023-03-26T03:25:59.267Z,97321.13
2023-03-26T03:28:28.491Z,97312.72
2023-03-26T03:30:59.341Z,97314.63
2023-03-26T03:33:28.058Z,97317.28
2023-03-26T03:35:59.598Z,97312.25
2023-03-26T03:38:28.034Z,97313.06
2023-03-26T03:40:56.936Z,97313.19
2023-03-26T03:43:25.625Z,97307.44
2023-03-26T03:45:54.491Z,97296.34
2023-03-26T03:48:23.249Z,97310.53
2023-03-26T03:50:51.938Z,97298.22
2023-03-26T03:53:22.012Z,97297.34
2023-03-26T03:55:53.688Z,97294.88
2023-03-26T03:58:23.202Z,97289.06
2023-03-26T04:00:52.605Z,97291.44
2023-03-26T04:03:33.949Z,97295.72
2023-03-26T04:06:07.082Z,97296.59
2023-03-26T04:08:37.508Z,97292.59
2023-03-26T04:11:06.558Z,97298.69
2023-03-26T04:13:35.134Z,97291.06
2023-03-26T04:16:04.158Z,97290.94
2023-03-26T04:18:33.322Z,97287.53
2023-03-26T04:21:03.254Z,97300.44
2023-03-26T04:23:31.753Z,97290.31
2023-03-26T04:26:05.631Z,97292.91
2023-03-26T04:28:42.485Z,97283.66
2023-03-26T04:31:16.011Z,97285.41
2023-03-26T04:33:47.932Z,97282.03
2023-03-26T04:36:18.057Z,97276.78
2023-03-26T04:38:49.424Z,97269.38
2023-03-26T04:41:19.503Z,97255.13
2023-03-26T04:43:50.833Z,97261.97
2023-03-26T04:46:22.049Z,97260.38
2023-03-26T04:48:51.118Z,97258.75
2023-03-26T04:51:22.134Z,97258.75
2023-03-26T04:53:54.571Z,97253.81
2023-03-26T04:56:36.123Z,97255.50
2023-03-26T04:59:06.218Z,97262.19
2023-03-26T05:01:38.052Z,97249.38
2023-03-26T05:04:06.593Z,97244.97
2023-03-26T05:06:35.142Z,97240.66
2023-03-26T05:09:04.097Z,97232.09
2023-03-26T05:11:33.810Z,97231.09
2023-03-26T05:14:02.294Z,97234.38
2023-03-26T05:16:32.289Z,97221.44
2023-03-26T05:19:00.665Z,97218.84
2023-03-26T05:21:29.151Z,97218.06
2023-03-26T05:23:57.480Z,97210.41
2023-03-26T05:26:26.312Z,97209.47
2023-03-26T05:28:56.348Z,97219.66
2023-03-26T05:31:27.193Z,97209.38
2023-03-26T05:33:56.359Z,97199.13
2023-03-26T05:36:25.383Z,97196.56
2023-03-26T05:38:54.946Z,97194.03
2023-03-26T05:41:23.357Z,97187.88
2023-03-26T05:43:52.145Z,97184.38
2023-03-26T05:46:23.376Z,97186.78
2023-03-26T05:48:52.502Z,97173.88
2023-03-26T05:51:20.920Z,97174.00
2023-03-26T05:53:49.405Z,97172.97
2023-03-26T05:56:17.817Z,97168.81
2023-03-26T05:58:45.909Z,97174.00
2023-03-26T06:01:17.160Z,97158.47
2023-03-26T06:03:48.664Z,97154.03
2023-03-26T06:06:19.954Z,97139.63
2023-03-26T06:09:01.607Z,97139.19
2023-03-26T06:11:31.346Z,97137.94
2023-03-26T06:13:59.610Z,97131.66
2023-03-26T06:16:28.494Z,97125.50
2023-03-26T06:18:59.175Z,97119.16
2023-03-26T06:21:28.859Z,97120.03
2023-03-26T06:23:57.136Z,97122.59
2023-03-26T06:26:26.105Z,97115.00
2023-03-26T06:28:54.893Z,97106.38
2023-03-26T06:31:23.411Z,97115.44
2023-03-26T06:33:52.379Z,97117.25
2023-03-26T06:36:22.400Z,97112.13
2023-03-26T06:38:51.424Z,97116.03
2023-03-26T06:41:19.719Z,97112.63
2023-03-26T06:43:48.078Z,97116.59
2023-03-26T06:46:16.934Z,97118.31
2023-03-26T06:48:45.464Z,97114.94
2023-03-26T06:51:14.266Z,97108.63
2023-03-26T06:53:44.241Z,97094.56
2023-03-26T06:56:12.846Z,97096.78
2023-03-26T06:58:41.568Z,97097.75
2023-03-26T07:01:10.259Z,97098.41
2023-03-26T07:03:39.002Z,97093.56
2023-03-26T07:06:08.590Z,97083.56
2023-03-26T07:08:37.256Z,97087.38
2023-03-26T07:11:07.942Z,97094.31
2023-03-26T07:13:37.813Z,97102.38
2023-03-26T07:16:07.313Z,97112.72
2023-03-26T07:18:36.017Z,97108.09
2023-03-26T07:21:04.918Z,97096.78
2023-03-26T07:23:33.803Z,97086.25
2023-03-26T07:26:12.502Z,97073.78
2023-03-26T07:29:04.731Z,97071.25
2023-03-26T07:31:43.531Z,97071.16
2023-03-26T07:34:26.431Z,97070.31
2023-03-26T07:37:04.669Z,97071.06
2023-03-26T07:39:46.522Z,97055.59
2023-03-26T07:42:29.634Z,97048.59
2023-03-26T07:45:05.247Z,97053.41
2023-03-26T07:47:35.587Z,97046.78
2023-03-26T07:50:05.152Z,97041.13
2023-03-26T07:52:34.657Z,97037.03
2023-03-26T07:55:03.664Z,97029.63
2023-03-26T07:57:44.494Z,97029.75
2023-03-26T08:00:19.287Z,97030.78
2023-03-26T08:03:05.161Z,97005.63
2023-03-26T08:05:36.376Z,97019.13
2023-03-26T08:08:14.696Z,97004.00
2023-03-26T08:10:55.947Z,97003.59
2023-03-26T08:13:29.428Z,97005.13
2023-03-26T08:16:05.594Z,97011.81
2023-03-26T08:18:48.350Z,97013.41
2023-03-26T08:21:21.246Z,96994.25
2023-03-26T08:24:00.585Z,97015.44
2023-03-26T08:26:38.675Z,97014.06
2023-03-26T08:29:15.358Z,97018.22
2023-03-26T08:31:48.236Z,97000.59
2023-03-26T08:34:16.935Z,97010.03
2023-03-26T08:36:46.342Z,97002.56
2023-03-26T08:39:14.720Z,96994.66
2023-03-26T08:42:34.366Z,96997.28
2023-03-26T08:45:35.399Z,96993.94
2023-03-26T08:48:56.315Z,96992.34
2023-03-26T08:52:05.667Z,96984.88
2023-03-26T08:55:06.654Z,96972.03
2023-03-26T08:58:05.224Z,96973.81
2023-03-26T09:00:47.122Z,96973.81
2023-03-26T09:03:38.353Z,96969.78
2023-03-26T09:06:34.056Z,96945.31
2023-03-26T09:09:46.766Z,96958.84
2023-03-26T09:12:59.487Z,96966.69
2023-03-26T09:16:06.623Z,96963.88
2023-03-26T09:18:55.139Z,96959.75
2023-03-26T09:21:51.613Z,96954.09
2023-03-26T09:24:39.490Z,96958.84
2023-03-26T09:27:30.315Z,96950.38
2023-03-26T09:30:23.178Z,96955.50
2023-03-26T09:33:28.499Z,96944.69
2023-03-26T09:36:19.292Z,96942.69
2023-03-26T09:38:54.343Z,96950.66
2023-03-26T09:41:37.962Z,96952.13
2023-03-26T09:44:50.983Z,96943.22
2023-03-26T09:47:50.029Z,96942.44
2023-03-26T09:50:54.200Z,96943.34
2023-03-26T09:53:41.097Z,96942.13
2023-03-26T09:56:27.346Z,96948.13
2023-03-26T09:59:34.103Z,96953.88
2023-03-26T10:02:18.551Z,96963.16
2023-03-26T10:05:10.351Z,96960.31
2023-03-26T10:08:12.748Z,96948.56
2023-03-26T10:10:48.887Z,96933.72
2023-03-26T10:13:27.543Z,96937.13
2023-03-26T10:16:08.505Z,96917.38
2023-03-26T10:18:50.157Z,96916.94
2023-03-26T10:21:28.553Z,96914.94
2023-03-26T10:24:28.140Z,96914.94
2023-03-26T10:27:10.907Z,96926.69
2023-03-26T10:30:08.070Z,96929.34
2023-03-26T10:32:45.509Z,96917.91
2023-03-26T10:35:28.819Z,96923.03
2023-03-26T10:38:15.504Z,96914.63
2023-03-26T10:40:52.972Z,96904.03
2023-03-26T10:44:08.707Z,96904.16
2023-03-26T10:46:52.617Z,96914.56
2023-03-26T10:49:41.270Z,96909.22
2023-03-26T10:52:13.296Z,96916.50
2023-03-26T10:54:51.920Z,96905.28
2023-03-26T10:57:30.610Z,96894.19
2023-03-26T11:00:08.319Z,96892.00
2023-03-26T11:02:43.135Z,96892.25
2023-03-26T11:05:26.821Z,96894.41
2023-03-26T11:08:03.168Z,96896.97
2023-03-26T11:10:42.814Z,96890.75
2023-03-26T11:13:20.329Z,96875.53
2023-03-26T11:15:57.826Z,96894.41
2023-03-26T11:18:36.565Z,96884.56
2023-03-26T11:21:19.815Z,96870.84
2023-03-26T11:24:05.873Z,96865.94
2023-03-26T11:26:47.418Z,96860.97
2023-03-26T11:29:35.340Z,96860.47
2023-03-26T11:32:10.969Z,96849.91
2023-03-26T11:34:42.166Z,96836.75
2023-03-26T11:37:18.202Z,96827.25
2023-03-26T11:39:51.454Z,96835.91
2023-03-26T11:42:24.523Z,96819.34
2023-03-26T11:44:57.230Z,96832.25
2023-03-26T11:47:33.831Z,96824.19
2023-03-26T11:50:05.193Z,96823.13
2023-03-26T11:52:34.127Z,96819.41
2023-03-26T11:55:03.523Z,96817.31
2023-03-26T11:57:36.314Z,96823.03
2023-03-26T12:00:16.872Z,96821.56
2023-03-26T12:02:49.017Z,96827.97
2023-03-26T12:05:20.633Z,96820.84
2023-03-26T12:07:54.900Z,96807.66
2023-03-26T12:10:26.772Z,96807.59
2023-03-26T12:12:58.334Z,96810.22
2023-03-26T12:15:28.293Z,96806.44
2023-03-26T12:18:00.332Z,96809.53
2023-03-26T12:20:36.151Z,96804.56
2023-03-26T12:23:08.324Z,96792.22
2023-03-26T12:25:40.275Z,96780.09
2023-03-26T12:28:21.057Z,96786.72
2023-03-26T12:30:59.585Z,96751.22
2023-03-26T12:33:34.477Z,96758.06
2023-03-26T12:36:20.679Z,96757.34
2023-03-26T12:39:16.317Z,96760.31
2023-03-26T12:44:42.719Z,96750.81
2023-03-26T12:44:54.243Z,96753.59
2023-03-26T12:48:00.710Z,96747.59
2023-03-26T12:50:17.140Z,96741.00
2023-03-26T12:53:08.304Z,96728.53
2023-03-26T12:55:42.928Z,96728.13
2023-03-26T12:58:34.250Z,96730.50
2023-03-26T13:01:15.846Z,96712.19
2023-03-26T13:04:15.454Z,96711.28
2023-03-26T13:07:01.314Z,96705.50
2023-03-26T13:10:15.802Z,96707.91
2023-03-26T13:12:53.610Z,96699.31
2023-03-26T13:15:33.200Z,96692.59
2023-03-26T13:18:13.375Z,96682.06
2023-03-26T13:20:54.190Z,96689.50
2023-03-26T13:23:36.577Z,96686.06
2023-03-26T13:26:15.697Z,96684.38
2023-03-26T13:28:53.936Z,96670.34
2023-03-26T13:31:26.133Z,96673.25
2023-03-26T13:34:02.108Z,96671.03
2023-03-26T13:36:38.565Z,96658.06
2023-03-26T13:39:22.500Z,96654.66
2023-03-26T13:42:12.170Z,96649.03
2023-03-26T13:44:52.824Z,96649.78
2023-03-26T13:47:38.228Z,96635.66
2023-03-26T13:50:16.228Z,96645.41
2023-03-26T13:52:52.371Z,96629.03
2023-03-26T13:55:28.571Z,96623.84
2023-03-26T13:58:05.284Z,96623.63
2023-03-26T14:00:54.689Z,96608.28
2023-03-26T14:03:32.368Z,96605.47
2023-03-26T14:06:04.972Z,96601.84
2023-03-26T14:08:37.880Z,96606.22
2023-03-26T14:11:13.605Z,96608.22
2023-03-26T14:13:47.636Z,96615.19
2023-03-26T14:16:19.167Z,96619.25
2023-03-26T14:18:56.325Z,96623.66
2023-03-26T14:21:48.962Z,96620.09
2023-03-26T14:24:49.689Z,96646.13
2023-03-26T14:27:32.650Z,96659.41
2023-03-26T14:30:25.021Z,96627.66
2023-03-26T14:33:04.425Z,96637.00
2023-03-26T14:35:39.006Z,96627.00
2023-03-26T14:38:48.916Z,96618.84
2023-03-26T14:41:25.467Z,96616.75
2023-03-26T14:44:25.728Z,96616.50
2023-03-26T14:47:10.204Z,96599.81
2023-03-26T14:50:04.751Z,96601.84
2023-03-26T14:52:44.460Z,96592.75
2023-03-26T14:55:18.551Z,96580.34
2023-03-26T14:58:02.723Z,96590.94
2023-03-26T15:01:04.053Z,96584.81
2023-03-26T15:04:20.198Z,96576.75
2023-03-26T15:07:23.502Z,96579.22
2023-03-26T15:10:12.696Z,96558.78
2023-03-26T15:13:10.339Z,96557.94
2023-03-26T15:16:17.914Z,96557.06
2023-03-26T15:19:31.606Z,96539.34
2023-03-26T15:22:50.527Z,96542.84
2023-03-26T15:25:58.675Z,96541.16
2023-03-26T15:29:03.887Z,96542.53
2023-03-26T15:31:55.915Z,96545.50
2023-03-26T15:35:06.315Z,96534.22
2023-03-26T15:38:21.037Z,96535.06
2023-03-26T15:41:02.021Z,96544.09
2023-03-26T15:44:23.854Z,96548.91
2023-03-26T15:47:01.515Z,96546.50
2023-03-26T15:49:42.936Z,96547.22
2023-03-26T15:52:25.710Z,96547.66
2023-03-26T15:55:05.223Z,96557.16
2023-03-26T15:57:41.297Z,96546.19
2023-03-26T16:00:23.321Z,96545.91
2023-03-26T16:03:12.289Z,96553.66
2023-03-26T16:05:56.521Z,96553.91
2023-03-26T16:08:38.790Z,96546.00
2023-03-26T16:11:12.725Z,96545.09
2023-03-26T16:13:42.977Z,96552.41
2023-03-26T16:16:51.563Z,96544.84
2023-03-26T16:19:52.557Z,96549.31
2023-03-26T16:22:43.765Z,96549.75
2023-03-26T16:25:28.271Z,96551.59
2023-03-26T16:28:31.122Z,96557.19
2023-03-26T16:31:38.138Z,96551.66
2023-03-26T16:34:31.811Z,96546.50
2023-03-26T16:37:09.231Z,96548.03
2023-03-26T16:39:42.967Z,96548.34
2023-03-26T16:42:38.853Z,96552.31
2023-03-26T16:45:24.732Z,96566.47
2023-03-26T16:48:03.237Z,96567.00
2023-03-26T16:50:43.890Z,96554.78
2023-03-26T16:53:30.600Z,96547.44
2023-03-26T16:56:05.207Z,96546.09
2023-03-26T16:58:40.158Z,96547.59
2023-03-26T17:01:12.171Z,96552.91
2023-03-26T17:03:51.137Z,96552.47
2023-03-26T17:06:34.996Z,96559.69
2023-03-26T17:09:17.817Z,96547.53
2023-03-26T17:11:58.973Z,96560.91
2023-03-26T17:14:41.728Z,96549.50
2023-03-26T17:17:36.899Z,96561.44
2023-03-26T17:20:18.233Z,96559.69
2023-03-26T17:22:49.304Z,96571.34
2023-03-26T17:25:30.998Z,96580.25
2023-03-26T17:28:17.768Z,96582.41
2023-03-26T17:31:04.514Z,96585.53
2023-03-26T17:33:36.951Z,96579.16
2023-03-26T17:36:42.409Z,96586.19
2023-03-26T17:39:22.940Z,96586.38
2023-03-26T17:42:02.715Z,96574.47
2023-03-26T17:44:41.951Z,96588.22
2023-03-26T17:47:20.022Z,96579.38
2023-03-26T17:49:54.703Z,96582.66
2023-03-26T17:52:29.475Z,96589.44
2023-03-26T17:54:59.020Z,96577.94
2023-03-26T17:57:40.325Z,96586.88
2023-03-26T18:00:17.500Z,96595.41
2023-03-26T18:02:51.375Z,96596.56
2023-03-26T18:05:20.164Z,96595.50
2023-03-26T18:08:33.934Z,96626.91
2023-03-26T18:11:19.590Z,96639.56
2023-03-26T18:14:27.885Z,96627.91
2023-03-26T18:17:00.272Z,96630.97
2023-03-26T18:19:29.976Z,96626.13
2023-03-26T18:22:01.437Z,96631.41
2023-03-26T18:24:32.712Z,96632.63
2023-03-26T18:27:06.791Z,96638.59
2023-03-26T18:29:38.321Z,96637.97
2023-03-26T18:32:26.417Z,96646.38
2023-03-26T18:34:58.370Z,96642.09
2023-03-26T18:37:30.075Z,96660.38
2023-03-26T18:40:02.280Z,96647.88
2023-03-26T18:42:33.526Z,96647.34
2023-03-26T18:45:09.816Z,96663.66
2023-03-26T18:47:38.579Z,96667.16
2023-03-26T18:50:08.306Z,96663.38
2023-03-26T18:52:37.159Z,96651.78
2023-03-26T18:55:06.043Z,96648.75
2023-03-26T18:57:35.490Z,96652.19
2023-03-26T19:00:20.689Z,96658.09
2023-03-26T19:02:52.058Z,96657.16
2023-03-26T19:05:21.432Z,96648.81
2023-03-26T19:07:52.458Z,96653.16
2023-03-26T19:10:23.400Z,96641.91
2023-03-26T19:12:59.792Z,96648.16
2023-03-26T19:15:32.649Z,96648.16
2023-03-26T19:18:07.564Z,96668.09
2023-03-26T19:20:42.371Z,96663.00
2023-03-26T19:23:16.032Z,96667.75
2023-03-26T19:25:49.188Z,96674.19
2023-03-26T19:28:21.286Z,96672.22
2023-03-26T19:30:56.387Z,96688.31
2023-03-26T19:33:26.607Z,96667.38
2023-03-26T19:36:03.920Z,96680.66
2023-03-26T19:38:43.749Z,96687.59
2023-03-26T19:41:21.519Z,96670.06
2023-03-26T19:43:51.788Z,96680.78
2023-03-26T19:46:25.103Z,96670.78
2023-03-26T19:48:55.757Z,96673.38
2023-03-26T19:51:26.332Z,96675.16
2023-03-26T19:53:56.684Z,96677.66
2023-03-26T19:56:25.744Z,96680.19
2023-03-26T19:58:54.854Z,96685.16
2023-03-26T20:01:26.829Z,96686.66
2023-03-26T20:04:00.006Z,96689.44
2023-03-26T20:06:42.285Z,96691.16
2023-03-26T20:09:12.563Z,96682.66
2023-03-26T20:11:41.346Z,96681.22
2023-03-26T20:14:15.370Z,96693.28
2023-03-26T20:16:46.169Z,96688.19
2023-03-26T20:19:15.780Z,96674.78
2023-03-26T20:21:44.970Z,96679.66
2023-03-26T20:24:16.061Z,96683.09
2023-03-26T20:26:45.082Z,96679.03
2023-03-26T20:29:14.840Z,96687.25
2023-03-26T20:31:45.434Z,96689.09
2023-03-26T20:34:18.934Z,96683.28
2023-03-26T20:36:48.455Z,96687.47
2023-03-26T20:39:16.670Z,96681.63
2023-03-26T20:41:47.830Z,96694.31
2023-03-26T20:44:18.208Z,96698.63
2023-03-26T20:46:49.762Z,96682.56
2023-03-26T20:49:19.846Z,96699.53
2023-03-26T20:51:49.683Z,96692.66
2023-03-26T20:54:20.451Z,96687.53
2023-03-26T20:56:49.557Z,96693.41
2023-03-26T20:59:22.521Z,96688.41
2023-03-26T21:01:52.517Z,96687.56
2023-03-26T21:04:22.570Z,96695.88
2023-03-26T21:06:51.710Z,96685.09
2023-03-26T21:09:24.329Z,96695.63
2023-03-26T21:12:01.278Z,96698.41
2023-03-26T21:14:35.098Z,96707.72
2023-03-26T21:17:06.030Z,96704.25
2023-03-26T21:19:35.421Z,96705.13
2023-03-26T21:22:20.220Z,96690.28
2023-03-26T21:25:02.963Z,96711.00
2023-03-26T21:27:40.515Z,96708.63
2023-03-26T21:30:14.529Z,96703.00
2023-03-26T21:32:45.101Z,96710.38
2023-03-26T21:35:16.559Z,96706.88
2023-03-26T21:37:48.723Z,96704.22
2023-03-26T21:40:18.745Z,96708.53
2023-03-26T21:42:50.170Z,96706.06
2023-03-26T21:45:19.913Z,96705.22
2023-03-26T21:47:51.562Z,96700.88
2023-03-26T21:50:23.097Z,96700.16
2023-03-26T21:52:52.348Z,96700.97
2023-03-26T21:55:22.650Z,96701.88
2023-03-26T21:58:23.559Z,96695.94
2023-03-26T22:01:08.981Z,96711.22
2023-03-26T22:03:56.529Z,96704.59
2023-03-26T22:06:32.489Z,96696.22
2023-03-26T22:09:01.183Z,96709.53
2023-03-26T22:11:29.973Z,96697.56
2023-03-26T22:13:58.546Z,96694.28
2023-03-26T22:16:27.102Z,96684.78
2023-03-26T22:18:57.074Z,96692.59
2023-03-26T22:21:25.351Z,96689.00
2023-03-26T22:23:54.399Z,96684.66
2023-03-26T22:26:23.957Z,96694.28
2023-03-26T22:28:53.319Z,96691.53
2023-03-26T22:31:24.865Z,96695.00
2023-03-26T22:33:53.799Z,96702.41
2023-03-26T22:36:25.391Z,96695.00
2023-03-26T22:38:55.563Z,96705.25
2023-03-26T22:41:24.300Z,96700.16
2023-03-26T22:43:54.865Z,96707.88
2023-03-26T22:46:24.357Z,96700.84
2023-03-26T22:48:53.060Z,96704.34
2023-03-26T22:51:23.102Z,96702.56
2023-03-26T22:53:51.231Z,96706.81
2023-03-26T22:56:19.799Z,96706.88
2023-03-26T22:58:49.131Z,96691.19
2023-03-26T23:01:19.521Z,96707.00
2023-03-26T23:03:49.081Z,96715.56
2023-03-26T23:06:18.017Z,96717.94
2023-03-26T23:08:48.552Z,96719.06
2023-03-26T23:11:18.933Z,96717.63
2023-03-26T23:13:50.045Z,96720.06
2023-03-26T23:16:20.013Z,96721.13
2023-03-26T23:18:48.938Z,96715.22
2023-03-26T23:21:19.772Z,96715.44
2023-03-26T23:23:52.844Z,96708.09
2023-03-26T23:26:21.819Z,96718.94
2023-03-26T23:28:51.250Z,96727.44
2023-03-26T23:31:19.619Z,96724.88
2023-03-26T23:33:48.218Z,96728.44
2023-03-26T23:36:19.310Z,96728.63
2023-03-26T23:38:50.014Z,96728.53
2023-03-26T23:41:21.723Z,96733.66
2023-03-26T23:43:55.836Z,96736.22
2023-03-26T23:46:24.961Z,96738.03
2023-03-26T23:48:53.863Z,96733.69
2023-03-26T23:51:24.283Z,96728.25
2023-03-26T23:53:54.547Z,96725.50
2023-03-26T23:56:23.027Z,96727.50
2023-03-26T23:58:51.406Z,96728.63
